Time;durP1;ratioP1;P1;durP2;ratioP2;P2;SDS_P1;SDS_P2;PMS_P1;PMS_P2;Temp;Humidity;BMP_temperature;BMP_pressure;BME280_temperature;BME280_humidity;BME280_pressure;Samples;Min_cycle;Max_cycle;Signal;HPM_P1;HPM_P2
2021/09/21 00:00:50;;;;;;;11.02;6.68;;;;;;;8.83;88.93;102912.50;5015677;28;20053;-67
2021/09/21 00:03:18;;;;;;;13.02;6.85;;;;;;;8.78;88.05;102925.81;5014332;28;20073;-68
2021/09/21 00:05:47;;;;;;;10.82;5.90;;;;;;;8.74;87.78;102925.75;5016894;28;20045;-68
2021/09/21 00:08:15;;;;;;;12.02;6.43;;;;;;;8.78;89.04;102922.22;5013504;28;20058;-68
2021/09/21 00:10:43;;;;;;;10.70;6.35;;;;;;;8.78;88.96;102914.25;5015408;28;20575;-68
2021/09/21 00:13:11;;;;;;;12.85;7.30;;;;;;;8.82;89.50;102912.50;5013264;28;20069;-68
2021/09/21 00:15:39;;;;;;;12.55;6.78;;;;;;;8.75;88.06;102909.81;5012668;28;20049;-66
2021/09/21 00:18:07;;;;;;;11.65;6.88;;;;;;;8.70;88.14;102906.22;5016169;28;20157;-65
2021/09/21 00:20:35;;;;;;;12.75;6.97;;;;;;;8.66;88.27;102917.69;5012375;28;20080;-68
2021/09/21 00:23:04;;;;;;;12.98;6.63;;;;;;;8.62;87.55;102923.00;5015837;28;20085;-68
2021/09/21 00:25:32;;;;;;;10.57;6.13;;;;;;;8.59;88.06;102916.75;5010719;28;20104;-68
2021/09/21 00:28:00;;;;;;;13.75;6.85;;;;;;;8.67;89.74;102919.50;5013720;28;20060;-67
2021/09/21 00:30:27;;;;;;;13.52;6.88;;;;;;;8.66;89.25;102915.03;5015740;28;20099;-68
2021/09/21 00:33:02;;;;;;;12.68;6.82;;;;;;;8.62;89.99;102915.91;5013972;28;20064;-67
2021/09/21 00:35:31;;;;;;;12.73;7.03;;;;;;;8.55;88.95;102916.72;5014609;28;20847;-68
2021/09/21 00:38:00;;;;;;;13.48;6.65;;;;;;;8.49;88.64;102919.31;5011420;28;20426;-68
2021/09/21 00:40:30;;;;;;;12.85;6.25;;;;;;;8.44;88.99;102926.34;5015044;28;20049;-67
2021/09/21 00:43:02;;;;;;;13.10;6.65;;;;;;;8.40;89.46;102923.63;5015804;28;20053;-67
2021/09/21 00:45:31;;;;;;;12.48;6.85;;;;;;;8.35;89.48;102928.00;5012296;28;20901;-68
2021/09/21 00:47:59;;;;;;;11.77;6.65;;;;;;;8.32;90.00;102932.41;5016751;28;20671;-68
2021/09/21 00:50:28;;;;;;;13.57;6.88;;;;;;;8.34;89.43;102923.59;5009777;28;20045;-68
2021/09/21 00:52:59;;;;;;;13.00;6.65;;;;;;;8.33;89.25;102927.09;5014077;28;20116;-68
2021/09/21 00:55:29;;;;;;;13.05;6.45;;;;;;;8.28;88.50;102935.91;5012330;28;20264;-67
2021/09/21 00:57:57;;;;;;;10.35;6.22;;;;;;;8.27;90.58;102943.00;5014557;28;20210;-67
2021/09/21 01:00:25;;;;;;;11.85;6.07;;;;;;;8.25;89.37;102946.53;5011845;28;20458;-68
2021/09/21 01:02:53;;;;;;;11.30;7.07;;;;;;;8.21;90.03;102949.13;5011562;28;20049;-68
2021/09/21 01:05:21;;;;;;;10.95;6.35;;;;;;;8.17;89.37;102944.69;5014079;28;20199;-66
2021/09/21 01:07:50;;;;;;;11.82;6.93;;;;;;;8.15;89.70;102937.53;5013894;28;20127;-66
2021/09/21 01:10:21;;;;;;;10.77;5.95;;;;;;;8.16;89.59;102931.34;5014245;28;20716;-66
2021/09/21 01:12:51;;;;;;;14.38;7.10;;;;;;;8.13;90.45;102924.22;5013191;28;20139;-66
2021/09/21 01:15:19;;;;;;;11.85;7.00;;;;;;;8.13;91.16;102924.22;5011751;28;20054;-66
2021/09/21 01:17:48;;;;;;;15.18;6.63;;;;;;;8.10;89.68;102926.84;5015397;28;20045;-66
2021/09/21 01:20:16;;;;;;;11.88;6.30;;;;;;;8.07;89.77;102916.19;5009325;28;20057;-65
2021/09/21 01:22:45;;;;;;;10.15;5.88;;;;;;;8.06;90.15;102927.69;5011724;28;20523;-65
2021/09/21 01:25:14;;;;;;;11.50;6.45;;;;;;;8.06;90.63;102908.19;5014388;28;20053;-66
2021/09/21 01:27:42;;;;;;;11.27;6.57;;;;;;;8.09;91.47;102900.22;5013881;28;20126;-65
2021/09/21 01:30:13;;;;;;;13.80;7.43;;;;;;;8.06;91.45;102902.88;5015432;28;20057;-65
2021/09/21 01:32:41;;;;;;;11.95;6.70;;;;;;;8.00;92.22;102899.28;5010035;28;20046;-65
2021/09/21 01:35:10;;;;;;;14.88;7.75;;;;;;;8.01;92.72;102905.47;5012532;28;20057;-66
2021/09/21 01:37:40;;;;;;;12.00;6.65;;;;;;;7.97;91.61;102896.56;5012424;28;20167;-66
2021/09/21 01:40:11;;;;;;;15.40;7.95;;;;;;;7.96;91.93;102905.41;5019177;28;20648;-65
2021/09/21 01:42:44;;;;;;;11.75;6.45;;;;;;;7.93;92.01;102910.69;5017461;28;20053;-66
2021/09/21 01:45:13;;;;;;;14.30;7.13;;;;;;;7.88;91.63;102912.41;5017134;28;20139;-65
2021/09/21 01:47:41;;;;;;;14.80;6.60;;;;;;;7.91;92.70;102916.88;5016649;28;20131;-65
2021/09/21 01:50:22;;;;;;;12.43;7.05;;;;;;;7.92;92.92;102914.25;5017652;28;20695;-65
2021/09/21 01:52:53;;;;;;;10.88;6.15;;;;;;;7.93;91.90;102915.13;5013455;28;20053;-66
2021/09/21 02:01:01;;;;;;;12.88;6.93;;;;;;;7.99;92.78;102908.13;4973585;28;20110;-65
2021/09/21 02:03:29;;;;;;;13.93;6.72;;;;;;;8.01;93.53;102908.13;5005042;28;20123;-65
2021/09/21 02:05:57;;;;;;;10.98;7.10;;;;;;;8.02;92.88;102902.84;5015899;28;20053;-66
2021/09/21 02:08:25;;;;;;;13.00;6.88;;;;;;;7.95;92.49;102902.72;5018173;28;20135;-66
2021/09/21 02:10:54;;;;;;;14.73;7.35;;;;;;;7.93;92.61;102900.06;5016342;28;20255;-66
2021/09/21 02:13:22;;;;;;;13.48;7.95;;;;;;;7.91;92.70;102898.28;5018787;28;20045;-65
2021/09/21 02:15:49;;;;;;;13.10;6.97;;;;;;;7.88;93.24;102896.44;5016971;28;20084;-66
2021/09/21 02:18:17;;;;;;;14.30;7.90;;;;;;;7.80;95.70;102909.66;5016396;28;20053;-66
2021/09/21 02:20:45;;;;;;;15.60;8.27;;;;;;;7.82;95.60;102913.22;5017528;28;20053;-66
2021/09/21 02:23:13;;;;;;;15.68;7.95;;;;;;;7.86;95.06;102919.47;5015414;28;20128;-66
2021/09/21 02:25:40;;;;;;;13.18;7.65;;;;;;;7.89;95.56;102923.94;5017452;28;20057;-66
2021/09/21 02:28:10;;;;;;;13.32;7.82;;;;;;;7.88;95.16;102923.03;5016167;28;20112;-66
2021/09/21 02:30:41;;;;;;;13.07;7.55;;;;;;;7.88;94.39;102919.50;5015510;28;20081;-66
2021/09/21 02:33:09;;;;;;;13.90;7.07;;;;;;;7.89;94.38;102916.84;5018746;28;20091;-66
2021/09/21 02:35:37;;;;;;;14.90;7.35;;;;;;;7.90;94.55;102917.75;5014824;28;20054;-66
2021/09/21 02:38:05;;;;;;;12.95;6.70;;;;;;;7.87;94.06;102913.28;5018403;28;20050;-66
2021/09/21 02:40:33;;;;;;;13.52;6.50;;;;;;;7.85;93.64;102920.38;5014364;28;20338;-66
2021/09/21 02:43:00;;;;;;;12.95;6.70;;;;;;;7.81;94.45;102923.84;5015361;28;20486;-66
2021/09/21 02:45:30;;;;;;;14.15;8.43;;;;;;;7.77;93.72;102916.72;5016455;28;20053;-66
2021/09/21 02:47:57;;;;;;;14.05;7.38;;;;;;;7.73;93.73;102922.84;5015265;28;20497;-66
2021/09/21 02:50:26;;;;;;;12.73;7.57;;;;;;;7.67;94.55;102927.19;5014556;28;20069;-66
2021/09/21 02:52:55;;;;;;;13.98;7.05;;;;;;;7.67;93.82;102931.63;5013184;28;20057;-66
2021/09/21 02:55:23;;;;;;;12.82;6.88;;;;;;;7.63;95.13;102938.66;5013182;28;20054;-66
2021/09/21 02:57:51;;;;;;;17.50;7.95;;;;;;;7.65;95.69;102942.25;5016403;28;20127;-66
2021/09/21 03:00:23;;;;;;;12.80;7.00;;;;;;;7.62;94.35;102941.31;5013992;28;20049;-66
2021/09/21 03:02:53;;;;;;;12.88;7.05;;;;;;;7.58;94.66;102944.81;5015489;28;20045;-67
2021/09/21 03:05:24;;;;;;;12.93;7.70;;;;;;;7.57;94.51;102950.97;5014874;28;20058;-66
2021/09/21 03:07:54;;;;;;;16.95;7.55;;;;;;;7.54;95.21;102945.63;5018643;28;20053;-68
2021/09/21 03:10:34;;;;;;;13.50;7.18;;;;;;;7.51;95.02;102945.56;5015704;28;20057;-68
2021/09/21 03:18:31;;;;;;;12.85;6.75;;;;;;;7.42;94.85;102947.25;5014633;28;20525;-68
2021/09/21 03:20:59;;;;;;;12.18;6.55;;;;;;;7.38;95.62;102949.81;5019246;28;20065;-68
2021/09/21 03:23:27;;;;;;;13.88;7.45;;;;;;;7.38;95.76;102958.69;5010917;28;20045;-68
2021/09/21 03:25:55;;;;;;;14.70;7.57;;;;;;;7.35;96.24;102953.31;5016473;28;20061;-68
2021/09/21 03:28:23;;;;;;;13.70;7.40;;;;;;;7.34;96.34;102962.16;5016166;28;20402;-68
2021/09/21 03:30:51;;;;;;;14.30;7.35;;;;;;;7.31;95.82;102959.47;5014742;28;20064;-68
2021/09/21 03:33:19;;;;;;;12.45;7.05;;;;;;;7.31;95.76;102953.25;5019206;28;20454;-68
2021/09/21 03:35:48;;;;;;;15.05;8.18;;;;;;;7.28;96.62;102964.72;5013154;28;20137;-68
2021/09/21 03:38:16;;;;;;;14.45;7.60;;;;;;;7.24;96.82;102968.22;5016042;28;20068;-68
2021/09/21 03:40:44;;;;;;;14.48;7.57;;;;;;;7.21;96.75;102974.34;5014414;28;20136;-68
2021/09/21 03:43:12;;;;;;;13.05;6.80;;;;;;;7.20;95.96;102977.91;5013087;28;20057;-68
2021/09/21 03:45:40;;;;;;;16.60;8.10;;;;;;;7.19;96.96;102980.53;5016958;28;20049;-68
2021/09/21 03:48:08;;;;;;;18.15;8.60;;;;;;;7.15;96.95;102987.53;5013925;28;20069;-68
2021/09/21 03:50:37;;;;;;;14.07;7.88;;;;;;;7.15;95.76;102987.53;5015569;28;20049;-67
2021/09/21 03:53:06;;;;;;;18.27;8.73;;;;;;;7.15;96.17;102984.91;5014478;28;20095;-68
2021/09/21 03:55:34;;;;;;;17.23;8.00;;;;;;;7.13;95.88;102983.06;5013046;28;20140;-68
2021/09/21 03:58:02;;;;;;;15.70;7.88;;;;;;;7.11;96.38;102983.91;5016042;28;20053;-68
2021/09/21 04:00:29;;;;;;;16.23;8.65;;;;;;;7.13;98.17;102996.34;5013919;28;20618;-69
2021/09/21 04:02:57;;;;;;;13.57;7.80;;;;;;;7.11;97.88;102996.31;5013060;28;20057;-69
2021/09/21 04:05:25;;;;;;;13.43;7.65;;;;;;;7.11;96.64;102989.22;5012950;28;20192;-67
2021/09/21 04:07:53;;;;;;;13.18;7.25;;;;;;;7.08;96.38;102988.28;5012782;28;20559;-67
2021/09/21 04:10:22;;;;;;;12.68;7.38;;;;;;;7.07;96.42;102992.72;5017755;28;20508;-68
2021/09/21 04:12:50;;;;;;;14.50;7.18;;;;;;;7.05;96.47;102989.16;5017617;28;20049;-68
2021/09/21 04:15:18;;;;;;;14.65;8.23;;;;;;;7.02;96.71;102978.47;5021216;28;20081;-67
2021/09/21 04:17:46;;;;;;;15.43;8.35;;;;;;;7.01;97.13;102991.72;5020870;28;20049;-68
2021/09/21 04:20:14;;;;;;;17.90;8.30;;;;;;;7.00;98.38;102996.13;5010176;28;20069;-68
2021/09/21 04:22:43;;;;;;;15.07;7.78;;;;;;;6.98;96.84;102992.56;5012210;28;20619;-68
2021/09/21 04:25:13;;;;;;;14.13;7.38;;;;;;;7.01;97.57;103005.00;5012469;28;20045;-68
2021/09/21 04:27:42;;;;;;;13.43;7.50;;;;;;;7.00;97.47;102997.88;5012513;28;20511;-69
2021/09/21 04:30:17;;;;;;;15.90;8.00;;;;;;;6.98;96.98;103000.53;5011203;28;20536;-69
2021/09/21 04:32:45;;;;;;;16.23;8.05;;;;;;;6.95;97.58;103000.47;5013251;28;20068;-69
2021/09/21 04:35:13;;;;;;;16.17;9.82;;;;;;;6.96;98.70;103007.56;5012630;28;20095;-68
2021/09/21 04:37:41;;;;;;;17.23;8.77;;;;;;;6.97;98.97;103017.31;5012518;28;20060;-68
2021/09/21 04:40:11;;;;;;;16.67;8.20;;;;;;;6.96;98.75;103025.25;5012649;28;20053;-68
2021/09/21 04:42:38;;;;;;;15.90;8.15;;;;;;;6.92;99.45;103022.53;5013125;28;20554;-68
2021/09/21 04:45:09;;;;;;;16.42;7.75;;;;;;;6.91;99.42;103028.72;5010645;28;20541;-68
2021/09/21 04:47:37;;;;;;;15.68;7.10;;;;;;;6.86;98.78;103027.75;5013804;28;20142;-68
2021/09/21 04:50:07;;;;;;;14.00;7.88;;;;;;;6.84;97.70;103034.75;5011779;28;20052;-68
2021/09/21 04:52:35;;;;;;;14.48;8.73;;;;;;;6.84;98.97;103031.22;5013299;28;20049;-66
2021/09/21 04:55:04;;;;;;;16.38;8.15;;;;;;;6.79;98.56;103028.47;5012540;28;20092;-67
2021/09/21 04:57:32;;;;;;;22.08;10.32;;;;;;;6.80;99.46;103021.44;5012992;28;20627;-66
2021/09/21 05:00:00;;;;;;;16.05;8.45;;;;;;;6.81;99.51;103023.19;5011678;28;20083;-66
2021/09/21 05:02:29;;;;;;;15.02;8.50;;;;;;;6.78;98.37;103037.31;5013817;28;20389;-66
2021/09/21 05:05:22;;;;;;;16.70;8.75;;;;;;;6.76;99.57;103038.16;5011344;28;20186;-66
2021/09/21 05:07:50;;;;;;;16.13;8.40;;;;;;;6.75;98.87;103037.25;5011943;28;20434;-66
2021/09/21 05:10:19;;;;;;;14.80;7.43;;;;;;;6.76;98.75;103044.38;5013390;28;20057;-66
2021/09/21 05:13:10;;;;;;;12.43;7.28;;;;;;;6.75;98.50;103044.34;5012210;28;20191;-66
2021/09/21 05:16:02;;;;;;;16.60;8.60;;;;;;;6.75;99.73;103050.53;5011319;28;20053;-66
2021/09/21 05:18:32;;;;;;;16.10;7.70;;;;;;;6.69;98.20;103051.31;5014583;28;20520;-66
2021/09/21 05:20:59;;;;;;;14.35;7.43;;;;;;;6.66;98.72;103048.59;5010683;28;20065;-66
2021/09/21 05:23:27;;;;;;;17.98;8.50;;;;;;;6.63;99.11;103059.16;5012568;28;20096;-66
2021/09/21 05:25:55;;;;;;;17.38;8.02;;;;;;;6.71;100.00;103052.22;5014032;28;20083;-66
2021/09/21 05:28:23;;;;;;;16.02;7.57;;;;;;;6.69;99.16;103055.72;5010463;28;20168;-66
2021/09/21 05:30:51;;;;;;;13.90;7.18;;;;;;;6.69;99.44;103059.28;5013796;28;20057;-66
2021/09/21 05:33:19;;;;;;;14.30;8.13;;;;;;;6.70;99.97;103065.47;5011027;28;20057;-67
2021/09/21 05:35:49;;;;;;;15.57;7.55;;;;;;;6.74;100.00;103056.69;5011532;28;20053;-65
2021/09/21 05:38:17;;;;;;;14.43;8.15;;;;;;;6.74;99.22;103056.69;5012810;28;20057;-68
2021/09/21 05:40:44;;;;;;;16.40;8.45;;;;;;;6.77;99.82;103056.75;5012390;28;20050;-66
2021/09/21 05:43:12;;;;;;;14.15;7.20;;;;;;;6.78;99.03;103061.22;5012076;28;20234;-66
2021/09/21 05:45:40;;;;;;;13.27;7.40;;;;;;;6.83;100.00;103054.22;5012606;28;20470;-68
2021/09/21 05:48:08;;;;;;;16.58;8.02;;;;;;;6.87;100.00;103050.75;5008958;28;20057;-67
2021/09/21 05:50:35;;;;;;;15.80;7.80;;;;;;;6.90;98.93;103052.59;5011355;28;20057;-68
2021/09/21 05:53:05;;;;;;;17.63;8.60;;;;;;;6.95;99.72;103048.25;5011627;28;20268;-67
2021/09/21 05:55:32;;;;;;;14.55;8.02;;;;;;;7.04;99.99;103058.13;5009127;28;20142;-68
2021/09/21 05:58:00;;;;;;;18.30;8.98;;;;;;;7.13;100.00;103052.09;5012999;28;20499;-68
2021/09/21 06:00:29;;;;;;;18.00;8.85;;;;;;;7.22;100.00;103054.91;5009088;28;20509;-68
2021/09/21 06:02:56;;;;;;;20.63;10.07;;;;;;;7.31;100.00;103044.44;5009849;28;20076;-68
2021/09/21 06:05:25;;;;;;;18.80;9.07;;;;;;;7.45;100.00;103048.22;5009485;28;20142;-67
2021/09/21 06:07:54;;;;;;;16.20;9.10;;;;;;;7.52;100.00;103043.00;5009882;28;20053;-69
2021/09/21 06:10:24;;;;;;;16.58;8.43;;;;;;;7.57;100.00;103052.81;5009381;28;20511;-69
2021/09/21 06:12:56;;;;;;;19.27;8.75;;;;;;;7.65;100.00;103053.84;5009723;28;20155;-68
2021/09/21 06:15:24;;;;;;;13.95;7.72;;;;;;;7.73;99.85;103064.59;5009330;28;20045;-68
2021/09/21 06:17:52;;;;;;;18.23;9.68;;;;;;;7.81;99.94;103067.38;5009126;28;20053;-69
2021/09/21 06:20:20;;;;;;;16.13;8.95;;;;;;;7.89;99.55;103071.03;5006492;28;20054;-68
2021/09/21 06:22:49;;;;;;;16.02;8.60;;;;;;;8.04;100.00;103071.25;5011860;28;20107;-68
2021/09/21 06:25:17;;;;;;;18.08;9.50;;;;;;;8.09;99.61;103081.03;5010821;28;20111;-68
2021/09/21 06:27:47;;;;;;;27.55;10.10;;;;;;;8.18;100.00;103075.88;5014015;28;20541;-67
2021/09/21 06:30:17;;;;;;;27.60;10.63;;;;;;;8.31;100.00;103076.91;5013579;28;20049;-68
2021/09/21 06:32:45;;;;;;;21.75;9.93;;;;;;;8.37;100.00;103079.66;5013179;28;20057;-67
2021/09/21 06:35:13;;;;;;;25.25;10.15;;;;;;;8.46;99.79;103079.78;5011313;28;20045;-68
2021/09/21 06:37:41;;;;;;;30.02;11.55;;;;;;;8.54;99.41;103075.47;5014057;28;20088;-68
2021/09/21 06:40:11;;;;;;;20.10;9.60;;;;;;;8.62;99.19;103077.34;5014658;28;20494;-68
2021/09/21 06:42:42;;;;;;;23.10;10.48;;;;;;;8.70;99.12;103081.88;5014410;28;20076;-68
2021/09/21 06:45:13;;;;;;;21.20;10.05;;;;;;;8.81;99.20;103089.09;5013464;28;20512;-68
2021/09/21 06:47:41;;;;;;;23.23;11.77;;;;;;;8.92;98.96;103087.41;5011963;28;20069;-68
2021/09/21 06:50:10;;;;;;;17.08;9.63;;;;;;;9.03;98.49;103091.09;5013644;28;20050;-67
2021/09/21 06:53:02;;;;;;;15.80;8.73;;;;;;;9.14;98.35;103099.19;5011467;28;20073;-69
2021/09/21 06:55:30;;;;;;;20.83;10.55;;;;;;;9.27;98.06;103094.88;5012382;28;20140;-69
2021/09/21 06:57:57;;;;;;;18.83;11.07;;;;;;;9.38;97.47;103097.63;5014557;28;20565;-69
2021/09/21 07:00:27;;;;;;;22.50;10.55;;;;;;;9.49;97.39;103098.63;5015160;28;20045;-69
2021/09/21 07:02:55;;;;;;;22.33;10.23;;;;;;;9.60;97.21;103094.25;5013118;28;20107;-67
2021/09/21 07:05:23;;;;;;;21.10;10.52;;;;;;;9.75;96.67;103100.63;5012516;28;20133;-66
2021/09/21 07:07:52;;;;;;;23.85;10.85;;;;;;;9.92;95.86;103104.28;5016504;28;20099;-67
2021/09/21 07:10:21;;;;;;;19.70;10.50;;;;;;;10.13;93.97;103098.22;5014557;28;20049;-67
2021/09/21 07:12:49;;;;;;;19.48;9.82;;;;;;;10.39;93.25;103117.03;5014435;28;20123;-67
2021/09/21 07:15:21;;;;;;;23.60;11.40;;;;;;;10.62;90.72;103116.25;5015310;28;20095;-67
2021/09/21 07:17:52;;;;;;;24.67;10.48;;;;;;;10.93;91.61;103125.28;5013639;28;20489;-67
2021/09/21 07:20:20;;;;;;;20.15;10.40;;;;;;;11.13;89.40;103122.63;5012527;28;20058;-69
2021/09/21 07:22:48;;;;;;;19.60;10.20;;;;;;;11.39;89.35;103130.69;5015849;28;20372;-69
2021/09/21 07:25:17;;;;;;;20.02;9.57;;;;;;;11.62;85.91;103135.16;5015685;28;20119;-69
2021/09/21 07:27:45;;;;;;;18.73;9.35;;;;;;;11.82;84.84;103129.81;5013969;28;20107;-68
2021/09/21 07:30:14;;;;;;;23.05;10.00;;;;;;;12.02;83.37;103136.94;5019747;28;20046;-69
2021/09/21 07:32:43;;;;;;;17.23;8.13;;;;;;;12.23;83.77;103138.69;5011206;28;20049;-69
2021/09/21 07:35:13;;;;;;;18.27;8.38;;;;;;;12.45;83.81;103139.53;5016101;28;20045;-69
2021/09/21 07:37:40;;;;;;;17.35;9.13;;;;;;;12.45;80.20;103143.09;5012608;28;20160;-69
2021/09/21 07:40:10;;;;;;;22.02;8.98;;;;;;;12.58;78.46;103143.94;5014617;28;20046;-67
2021/09/21 07:42:38;;;;;;;17.27;8.73;;;;;;;12.83;80.27;103142.03;5017541;28;20073;-68
2021/09/21 07:45:08;;;;;;;17.77;9.32;;;;;;;13.17;79.85;103149.00;5015110;28;20061;-69
2021/09/21 07:47:36;;;;;;;18.75;9.02;;;;;;;13.52;80.16;103154.16;5016180;28;20525;-69
2021/09/21 07:50:04;;;;;;;16.73;7.85;;;;;;;13.94;78.76;103154.66;5013175;28;20531;-69
2021/09/21 07:52:34;;;;;;;15.25;8.15;;;;;;;14.15;74.43;103158.06;5013570;28;20064;-70
2021/09/21 07:55:02;;;;;;;13.60;7.78;;;;;;;14.35;75.11;103148.00;5015861;28;20049;-69
2021/09/21 07:57:34;;;;;;;13.27;6.60;;;;;;;14.53;69.59;103156.75;5015509;28;20536;-69
2021/09/21 08:00:02;;;;;;;12.93;6.53;;;;;;;14.56;65.68;103154.91;5013627;28;20069;-68
2021/09/21 08:02:30;;;;;;;13.70;7.35;;;;;;;14.92;65.46;103166.13;5012114;28;20095;-68
2021/09/21 08:04:58;;;;;;;9.32;5.57;;;;;;;15.03;65.58;103159.72;5013566;28;20070;-68
2021/09/21 08:07:28;;;;;;;8.95;4.72;;;;;;;14.90;61.43;103162.59;5012908;28;20050;-66
2021/09/21 08:09:58;;;;;;;10.15;5.00;;;;;;;15.11;59.42;103158.69;5012853;28;20472;-66
2021/09/21 08:12:26;;;;;;;10.68;4.97;;;;;;;15.44;59.99;103151.06;5013701;28;20046;-66
2021/09/21 08:14:54;;;;;;;9.65;5.22;;;;;;;15.47;59.26;103155.47;5015417;28;20139;-68
2021/09/21 08:17:24;;;;;;;9.95;5.32;;;;;;;15.69;60.40;103145.25;5011410;28;20512;-66
2021/09/21 08:19:53;;;;;;;11.13;5.22;;;;;;;15.73;59.80;103154.16;5015421;28;20056;-66
2021/09/21 08:22:25;;;;;;;12.95;5.65;;;;;;;15.99;59.73;103149.25;5011559;28;20049;-66
2021/09/21 08:24:54;;;;;;;11.30;5.38;;;;;;;15.82;58.14;103144.16;5016987;28;20144;-68
2021/09/21 08:27:24;;;;;;;11.32;5.88;;;;;;;16.11;57.62;103152.63;5010878;28;20748;-68
2021/09/21 08:29:52;;;;;;;10.55;5.65;;;;;;;16.71;57.74;103152.31;5014377;28;20142;-70
2021/09/21 08:32:20;;;;;;;11.50;5.10;;;;;;;16.85;55.87;103148.47;5012745;28;20068;-68
2021/09/21 08:35:12;;;;;;;10.00;4.75;;;;;;;16.96;56.39;103157.22;5011590;28;20099;-70
2021/09/21 08:38:04;;;;;;;10.60;4.43;;;;;;;16.52;50.59;103153.63;5012726;28;20163;-70
2021/09/21 08:40:57;;;;;;;10.90;4.50;;;;;;;16.79;52.73;103160.25;5014493;28;20064;-68
2021/09/21 08:43:26;;;;;;;11.68;5.45;;;;;;;16.66;52.38;103154.22;5012567;28;20080;-67
2021/09/21 08:45:54;;;;;;;14.60;6.28;;;;;;;16.60;53.99;103151.63;5015134;28;20056;-66
2021/09/21 08:48:22;;;;;;;15.30;5.93;;;;;;;16.69;52.84;103154.16;5015192;28;20526;-67
2021/09/21 08:50:50;;;;;;;14.32;5.90;;;;;;;16.86;52.31;103153.81;5013978;28;20049;-68
2021/09/21 08:53:18;;;;;;;11.63;5.20;;;;;;;16.97;51.50;103161.66;5013121;28;20400;-67
2021/09/21 08:55:47;;;;;;;12.93;6.30;;;;;;;16.48;51.60;103152.81;5013785;28;20055;-66
2021/09/21 08:58:14;;;;;;;11.15;5.88;;;;;;;16.72;52.70;103156.78;5015369;28;20102;-65
2021/09/21 09:00:44;;;;;;;11.00;5.68;;;;;;;17.01;53.16;103147.22;5009847;28;20066;-66
2021/09/21 09:03:14;;;;;;;13.40;5.35;;;;;;;17.23;51.39;103153.00;5011963;28;20482;-66
2021/09/21 09:05:45;;;;;;;11.13;5.53;;;;;;;17.33;50.56;103159.03;5012745;28;20505;-68
2021/09/21 09:08:30;;;;;;;12.75;5.38;;;;;;;17.40;50.55;103162.47;5013433;28;20753;-69
2021/09/21 09:11:13;;;;;;;10.40;5.93;;;;;;;17.47;50.08;103161.41;5012645;28;20307;-68
2021/09/21 09:13:41;;;;;;;11.63;6.10;;;;;;;17.79;49.95;103162.41;5010099;28;20424;-68
2021/09/21 09:16:14;;;;;;;9.73;5.10;;;;;;;17.97;48.96;103153.00;5012710;28;20053;-68
2021/09/21 09:18:42;;;;;;;11.67;5.57;;;;;;;17.84;48.79;103152.38;5007952;28;20045;-67
2021/09/21 09:21:10;;;;;;;13.48;6.65;;;;;;;17.80;48.60;103154.28;5012999;28;20294;-68
2021/09/21 09:23:49;;;;;;;12.40;5.28;;;;;;;18.09;49.16;103164.34;5009442;28;20049;-66
2021/09/21 09:26:19;;;;;;;11.35;5.85;;;;;;;17.79;48.60;103160.59;5008138;28;20061;-67
2021/09/21 09:28:48;;;;;;;12.30;5.65;;;;;;;18.29;47.83;103157.53;5008998;28;20536;-67
2021/09/21 09:31:29;;;;;;;12.70;6.50;;;;;;;18.21;46.87;103152.31;5010944;28;20286;-68
2021/09/21 09:34:12;;;;;;;9.23;5.40;;;;;;;18.81;48.02;103164.13;5009504;28;20057;-68
2021/09/21 09:36:45;;;;;;;12.90;6.87;;;;;;;18.58;46.55;103153.97;5013478;28;20541;-66
2021/09/21 09:39:14;;;;;;;13.73;5.88;;;;;;;18.81;46.90;103157.81;5009881;28;20054;-68
2021/09/21 09:41:44;;;;;;;10.48;5.45;;;;;;;18.85;46.26;103164.94;5010597;28;20496;-66
2021/09/21 09:44:14;;;;;;;12.73;5.38;;;;;;;19.40;46.57;103159.59;5011004;28;20444;-66
2021/09/21 09:46:48;;;;;;;11.13;5.90;;;;;;;19.17;45.05;103163.03;5010763;28;20045;-67
2021/09/21 09:49:22;;;;;;;11.53;5.43;;;;;;;19.68;45.09;103162.28;5008093;28;20080;-68
2021/09/21 09:51:52;;;;;;;11.73;5.20;;;;;;;19.53;44.89;103157.38;5009165;28;20054;-67
2021/09/21 09:54:20;;;;;;;13.95;5.55;;;;;;;19.38;43.53;103156.94;5008550;28;20276;-67
2021/09/21 09:56:48;;;;;;;11.52;4.95;;;;;;;19.96;44.27;103151.41;5007660;28;20056;-66
2021/09/21 09:59:17;;;;;;;10.40;5.40;;;;;;;20.03;42.55;103153.91;5011842;28;20072;-67
2021/09/21 10:01:47;;;;;;;12.85;4.50;;;;;;;20.24;43.06;103155.81;5011480;28;20060;-67
2021/09/21 10:04:15;;;;;;;9.63;4.60;;;;;;;20.02;41.65;103153.00;5012457;28;20052;-68
2021/09/21 10:06:44;;;;;;;10.02;5.13;;;;;;;19.95;41.96;103154.16;5010420;28;20053;-67
2021/09/21 10:09:16;;;;;;;10.13;3.90;;;;;;;20.42;42.52;103148.84;5014605;28;20064;-66
2021/09/21 10:11:47;;;;;;;10.00;4.68;;;;;;;20.37;41.91;103150.84;5013248;28;20057;-69
2021/09/21 10:14:15;;;;;;;9.77;4.47;;;;;;;20.44;41.16;103154.22;5012356;28;20107;-67
2021/09/21 10:16:51;;;;;;;7.18;3.80;;;;;;;20.75;40.74;103167.53;5016464;28;20049;-67
2021/09/21 10:19:21;;;;;;;6.30;3.45;;;;;;;20.98;39.97;103157.63;5014406;28;20112;-67
2021/09/21 10:21:51;;;;;;;6.00;2.90;;;;;;;20.36;39.04;103154.50;5016051;28;20049;-69
2021/09/21 10:24:29;;;;;;;5.18;2.42;;;;;;;20.20;37.64;103146.06;5011529;28;20477;-69
2021/09/21 10:27:03;;;;;;;5.65;2.30;;;;;;;20.10;38.41;103139.19;5013095;28;20640;-67
2021/09/21 10:29:59;;;;;;;8.13;2.97;;;;;;;20.12;38.19;103149.03;5014023;28;20060;-67
2021/09/21 10:32:29;;;;;;;5.00;2.28;;;;;;;20.47;37.60;103155.00;5013354;28;20331;-66
2021/09/21 10:34:58;;;;;;;4.63;2.65;;;;;;;20.45;38.52;103151.47;5012194;28;20151;-66
2021/09/21 10:37:32;;;;;;;5.32;2.53;;;;;;;20.62;38.52;103152.63;5015327;28;20552;-66
2021/09/21 10:40:00;;;;;;;6.22;2.33;;;;;;;20.95;37.47;103144.19;5019272;28;20140;-66
2021/09/21 10:42:29;;;;;;;6.43;2.50;;;;;;;20.84;37.08;103150.91;5012806;28;20081;-66
2021/09/21 10:44:59;;;;;;;7.15;3.00;;;;;;;21.52;37.74;103136.44;5018580;28;20169;-65
2021/09/21 10:47:30;;;;;;;6.82;2.72;;;;;;;21.35;36.43;103139.84;5012478;28;20045;-66
2021/09/21 10:50:10;;;;;;;6.43;3.33;;;;;;;21.08;38.00;103140.03;5017178;28;20053;-66
2021/09/21 10:52:38;;;;;;;6.70;3.05;;;;;;;21.09;37.74;103141.78;5012807;28;20064;-66
2021/09/21 10:55:09;;;;;;;6.93;3.10;;;;;;;21.51;37.65;103142.84;5017233;28;20049;-66
2021/09/21 10:57:40;;;;;;;9.32;3.13;;;;;;;21.42;37.40;103144.09;5014692;28;20056;-66
2021/09/21 11:00:12;;;;;;;5.20;3.03;;;;;;;21.13;37.41;103151.59;5014670;28;20361;-68
2021/09/21 11:02:44;;;;;;;6.03;2.90;;;;;;;21.20;40.27;103149.50;5011483;28;20222;-67
2021/09/21 11:05:16;;;;;;;8.87;3.20;;;;;;;21.37;39.28;103154.25;5013634;28;20494;-68
2021/09/21 11:07:49;;;;;;;6.03;2.60;;;;;;;21.20;39.23;103149.50;5013377;28;20042;-68
2021/09/21 11:10:18;;;;;;;7.15;2.83;;;;;;;21.67;37.40;103153.94;5012359;28;20452;-68
2021/09/21 11:12:48;;;;;;;5.65;2.60;;;;;;;21.39;36.59;103149.63;5011446;28;20049;-67
2021/09/21 11:15:17;;;;;;;4.00;2.30;;;;;;;21.59;37.74;103156.97;5013013;28;20053;-67
2021/09/21 11:17:46;;;;;;;6.03;2.60;;;;;;;21.18;39.00;103154.09;5013127;28;20045;-68
2021/09/21 11:20:15;;;;;;;5.07;2.50;;;;;;;21.24;38.55;103151.16;5012324;28;20049;-65
2021/09/21 11:22:49;;;;;;;5.90;2.53;;;;;;;20.78;38.28;103150.25;5008494;28;20609;-67
2021/09/21 11:25:17;;;;;;;2.03;1.60;;;;;;;21.24;36.98;103145.72;5012954;28;21904;-66
2021/09/21 11:27:45;;;;;;;3.75;1.70;;;;;;;21.52;36.75;103145.50;5013152;28;20521;-67
2021/09/21 11:30:17;;;;;;;3.30;1.90;;;;;;;21.85;37.52;103139.56;5012443;28;20174;-67
2021/09/21 11:32:47;;;;;;;7.82;3.00;;;;;;;22.57;36.36;103144.47;5013303;28;20287;-68
2021/09/21 11:35:17;;;;;;;7.38;3.80;;;;;;;21.96;36.59;103139.06;5010842;28;20123;-67
2021/09/21 11:37:46;;;;;;;8.70;3.53;;;;;;;22.52;38.22;103145.66;5010644;28;20057;-68
2021/09/21 11:40:23;;;;;;;6.00;3.50;;;;;;;22.11;36.46;103141.09;5012760;28;20053;-68
2021/09/21 11:42:51;;;;;;;7.07;3.28;;;;;;;22.15;37.55;103142.75;5011748;28;20474;-68
2021/09/21 11:45:19;;;;;;;5.00;2.63;;;;;;;21.91;36.92;103141.13;5012027;28;20300;-68